Time;durP1;ratioP1;P1;durP2;ratioP2;P2;SDS_P1;SDS_P2;PMS_P1;PMS_P2;Temp;Humidity;BMP_temperature;BMP_pressure;BME280_temperature;BME280_humidity;BME280_pressure;Samples;Min_cycle;Max_cycle;Signal;HPM_P1;HPM_P2
2024/01/28 00:01:19;;;;;;;1.20;0.50;;;;;;;;;;5035232;28;20196;-85
2024/01/28 00:03:46;;;;;;;0.60;0.60;;;;;;;;;;5037329;28;20200;-85
2024/01/28 00:06:15;;;;;;;1.60;0.73;;;;;;;;;;5036562;28;20191;-84
2024/01/28 00:08:43;;;;;;;0.90;0.90;;;;;;;;;;5036620;28;20233;-85
2024/01/28 00:11:10;;;;;;;1.13;1.03;;;;;;;;;;5048915;28;20348;-85
2024/01/28 00:13:40;;;;;;;0.87;0.60;;;;;;;;;;5054555;28;20196;-86
2024/01/28 00:16:14;;;;;;;1.60;0.50;;;;;;;;;;5056709;28;20695;-85
2024/01/28 00:18:41;;;;;;;0.93;0.67;;;;;;;;;;5039588;28;20741;-85
2024/01/28 00:21:08;;;;;;;0.73;0.73;;;;;;;;;;5037065;28;20281;-84
2024/01/28 00:23:35;;;;;;;2.13;0.47;;;;;;;;;;5036262;28;20192;-84
2024/01/28 00:26:03;;;;;;;0.73;0.63;;;;;;;;;;5035924;28;20236;-86
2024/01/28 00:28:31;;;;;;;0.70;0.70;;;;;;;;;;5037264;28;20683;-85
2024/01/28 00:31:03;;;;;;;0.60;0.60;;;;;;;;;;5037803;28;20680;-84
2024/01/28 00:33:30;;;;;;;0.83;0.30;;;;;;;;;;5040898;28;20203;-85
2024/01/28 00:35:59;;;;;;;1.17;0.40;;;;;;;;;;5057205;28;20247;-84
2024/01/28 00:38:31;;;;;;;3.60;1.30;;;;;;;;;;5051742;28;20196;-86
2024/01/28 00:40:58;;;;;;;1.53;0.53;;;;;;;;;;5050678;28;20196;-85
2024/01/28 00:43:26;;;;;;;0.40;0.40;;;;;;;;;;5046205;28;20261;-86
2024/01/28 00:45:56;;;;;;;0.47;0.47;;;;;;;;;;5042681;28;20278;-85
2024/01/28 00:48:25;;;;;;;3.87;0.83;;;;;;;;;;5037480;28;20334;-86
2024/01/28 00:50:53;;;;;;;4.03;1.13;;;;;;;;;;5036794;28;20218;-84
2024/01/28 00:53:21;;;;;;;1.20;0.70;;;;;;;;;;5043047;28;20196;-85
2024/01/28 00:55:49;;;;;;;2.73;1.37;;;;;;;;;;5049483;28;20204;-85
2024/01/28 00:58:16;;;;;;;0.90;0.83;;;;;;;;;;5050511;28;20196;-86
2024/01/28 01:00:43;;;;;;;5.10;2.00;;;;;;;;;;5039450;28;20256;-83
2024/01/28 01:03:11;;;;;;;2.33;1.00;;;;;;;;;;5045302;28;20196;-84
2024/01/28 01:05:42;;;;;;;0.63;0.63;;;;;;;;;;5048198;28;20196;-84
2024/01/28 01:08:09;;;;;;;0.50;0.50;;;;;;;;;;5043629;28;20252;-83
2024/01/28 01:10:36;;;;;;;3.80;0.73;;;;;;;;;;5042403;28;20203;-85
2024/01/28 01:13:03;;;;;;;1.53;0.90;;;;;;;;;;5035697;28;20286;-85
2024/01/28 01:15:31;;;;;;;2.83;0.57;;;;;;;;;;5036598;28;20200;-86
2024/01/28 01:17:59;;;;;;;0.83;0.80;;;;;;;;;;5037015;28;20738;-84
2024/01/28 01:20:26;;;;;;;1.60;1.40;;;;;;;;;;5040323;28;20238;-86
2024/01/28 01:22:54;;;;;;;0.57;0.53;;;;;;;;;;5035676;28;20223;-84
2024/01/28 01:25:22;;;;;;;1.20;1.10;;;;;;;;;;5035178;28;20726;-85
2024/01/28 01:27:52;;;;;;;2.63;0.83;;;;;;;;;;5034587;28;20758;-86
2024/01/28 01:30:19;;;;;;;0.40;0.40;;;;;;;;;;5035047;28;20203;-84
2024/01/28 01:32:47;;;;;;;1.30;1.30;;;;;;;;;;5035111;28;20514;-84
2024/01/28 01:35:14;;;;;;;0.97;0.97;;;;;;;;;;5035343;28;20200;-85
2024/01/28 01:37:41;;;;;;;0.87;0.63;;;;;;;;;;5034350;28;20207;-85
2024/01/28 01:40:14;;;;;;;3.63;1.17;;;;;;;;;;5034144;28;20500;-85
2024/01/28 01:42:42;;;;;;;0.83;0.83;;;;;;;;;;5034594;28;20676;-84
2024/01/28 01:45:08;;;;;;;3.30;0.70;;;;;;;;;;5034113;28;20680;-85
2024/01/28 01:47:40;;;;;;;0.60;0.60;;;;;;;;;;5032919;28;20254;-84
2024/01/28 01:50:10;;;;;;;10.83;1.30;;;;;;;;;;5034564;28;20204;-85
2024/01/28 01:52:38;;;;;;;1.93;1.10;;;;;;;;;;5034687;28;20653;-85
2024/01/28 01:55:07;;;;;;;2.33;1.23;;;;;;;;;;5036467;28;20200;-86
2024/01/28 01:57:37;;;;;;;2.40;1.50;;;;;;;;;;5038563;28;20255;-84
2024/01/28 02:00:05;;;;;;;1.90;1.27;;;;;;;;;;5041493;28;20214;-84
2024/01/28 02:02:34;;;;;;;4.53;1.27;;;;;;;;;;5055718;28;20264;-85
2024/01/28 02:05:01;;;;;;;2.63;1.40;;;;;;;;;;5050179;28;20204;-84
2024/01/28 02:07:30;;;;;;;4.53;1.10;;;;;;;;;;5035254;28;20235;-85
2024/01/28 02:09:59;;;;;;;0.80;0.80;;;;;;;;;;5035059;28;20215;-84
2024/01/28 02:12:27;;;;;;;0.57;0.57;;;;;;;;;;5034579;28;20215;-85
2024/01/28 02:15:05;;;;;;;2.20;1.53;;;;;;;;;;5035012;28;20204;-85
2024/01/28 02:17:35;;;;;;;1.13;1.03;;;;;;;;;;5035568;28;20204;-85
2024/01/28 02:20:02;;;;;;;0.60;0.60;;;;;;;;;;5033012;28;20198;-85
2024/01/28 02:22:30;;;;;;;1.37;0.47;;;;;;;;;;5032925;28;20207;-84
2024/01/28 02:24:59;;;;;;;0.80;0.80;;;;;;;;;;5032742;28;20203;-85
2024/01/28 02:27:27;;;;;;;0.43;0.43;;;;;;;;;;5033843;28;20282;-85
2024/01/28 02:29:54;;;;;;;1.40;0.50;;;;;;;;;;5032472;28;20223;-86
2024/01/28 02:32:22;;;;;;;1.60;0.70;;;;;;;;;;5033574;28;20694;-85
2024/01/28 02:34:51;;;;;;;1.17;1.17;;;;;;;;;;5034644;28;20196;-86
2024/01/28 02:37:18;;;;;;;0.37;0.37;;;;;;;;;;5036177;28;20215;-84
2024/01/28 02:39:45;;;;;;;1.90;1.37;;;;;;;;;;5033953;28;20215;-85
2024/01/28 02:42:14;;;;;;;0.63;0.63;;;;;;;;;;5039641;28;20310;-84
2024/01/28 02:44:41;;;;;;;0.93;0.93;;;;;;;;;;5036003;28;20270;-83
2024/01/28 02:47:09;;;;;;;2.13;0.67;;;;;;;;;;5033969;28;20652;-87
2024/01/28 02:49:37;;;;;;;0.60;0.40;;;;;;;;;;5033448;28;20295;-85
2024/01/28 02:52:05;;;;;;;0.37;0.37;;;;;;;;;;5033300;28;20306;-86
2024/01/28 02:54:33;;;;;;;0.47;0.47;;;;;;;;;;5032865;28;20200;-86
2024/01/28 02:57:00;;;;;;;0.60;0.60;;;;;;;;;;5034772;28;20206;-85
2024/01/28 02:59:29;;;;;;;0.93;0.93;;;;;;;;;;5033186;28;20216;-85
2024/01/28 03:01:57;;;;;;;1.33;0.97;;;;;;;;;;5034027;28;20299;-85
2024/01/28 03:04:25;;;;;;;2.13;1.23;;;;;;;;;;5043162;28;20168;-85
2024/01/28 03:06:53;;;;;;;3.60;0.73;;;;;;;;;;5039869;28;20206;-86
2024/01/28 03:09:20;;;;;;;0.57;0.57;;;;;;;;;;5044577;28;20761;-86
2024/01/28 03:11:47;;;;;;;0.50;0.50;;;;;;;;;;5035432;28;20207;-86
2024/01/28 03:14:16;;;;;;;0.30;0.30;;;;;;;;;;5034501;28;20272;-84
2024/01/28 03:16:46;;;;;;;0.60;0.60;;;;;;;;;;5034342;28;20682;-85
2024/01/28 03:19:15;;;;;;;0.67;0.67;;;;;;;;;;5035273;28;20632;-85
2024/01/28 03:21:43;;;;;;;3.90;1.00;;;;;;;;;;5034243;28;20556;-84
2024/01/28 03:24:10;;;;;;;1.90;0.60;;;;;;;;;;5034159;28;20211;-85
2024/01/28 03:26:37;;;;;;;1.23;0.83;;;;;;;;;;5033346;28;20242;-85
2024/01/28 03:29:06;;;;;;;20.57;0.87;;;;;;;;;;5033032;28;20231;-86
2024/01/28 03:31:33;;;;;;;2.03;1.03;;;;;;;;;;5041249;28;20223;-85
2024/01/28 03:34:02;;;;;;;0.63;0.57;;;;;;;;;;5051679;28;20206;-85
2024/01/28 03:36:30;;;;;;;0.53;0.50;;;;;;;;;;5050647;28;20208;-85
2024/01/28 03:38:57;;;;;;;4.03;1.00;;;;;;;;;;5038034;28;20200;-85
2024/01/28 03:41:24;;;;;;;0.53;0.53;;;;;;;;;;5037186;28;20650;-86
2024/01/28 03:43:51;;;;;;;2.20;0.87;;;;;;;;;;5046060;28;20200;-85
2024/01/28 03:46:19;;;;;;;1.03;1.03;;;;;;;;;;5044423;28;20282;-84
2024/01/28 03:48:47;;;;;;;6.50;1.77;;;;;;;;;;5045645;28;21106;-85
2024/01/28 03:51:17;;;;;;;0.83;0.50;;;;;;;;;;5047540;28;20210;-85
2024/01/28 03:53:44;;;;;;;1.33;1.23;;;;;;;;;;5049984;28;20227;-84
2024/01/28 03:56:13;;;;;;;0.53;0.53;;;;;;;;;;5043620;28;20215;-84
2024/01/28 03:58:41;;;;;;;2.10;1.33;;;;;;;;;;5042073;28;20195;-86
2024/01/28 04:01:08;;;;;;;0.63;0.63;;;;;;;;;;5048702;28;20454;-84
2024/01/28 04:03:35;;;;;;;1.00;0.90;;;;;;;;;;5047331;28;20220;-83
2024/01/28 04:06:02;;;;;;;1.13;1.00;;;;;;;;;;5049112;28;20208;-84
2024/01/28 04:08:31;;;;;;;6.17;0.87;;;;;;;;;;5050385;28;20239;-85
2024/01/28 04:11:02;;;;;;;1.03;1.03;;;;;;;;;;5052784;28;20231;-85
2024/01/28 04:13:29;;;;;;;1.40;1.00;;;;;;;;;;5051065;28;20200;-84
2024/01/28 04:15:56;;;;;;;1.97;0.83;;;;;;;;;;5052472;28;20649;-85
2024/01/28 04:18:23;;;;;;;2.83;0.77;;;;;;;;;;5045876;28;20672;-86
2024/01/28 04:20:51;;;;;;;0.50;0.50;;;;;;;;;;5044858;28;20215;-85
2024/01/28 04:23:18;;;;;;;2.63;0.87;;;;;;;;;;5046359;28;20195;-85
2024/01/28 04:25:49;;;;;;;3.10;1.73;;;;;;;;;;5044235;28;20320;-85
2024/01/28 04:28:16;;;;;;;0.33;0.33;;;;;;;;;;5046166;28;20684;-84
2024/01/28 04:30:46;;;;;;;3.90;0.60;;;;;;;;;;5048704;28;20208;-84
2024/01/28 04:33:14;;;;;;;0.97;0.97;;;;;;;;;;5050835;28;20210;-83
2024/01/28 04:35:43;;;;;;;0.70;0.70;;;;;;;;;;5050183;28;20677;-82
2024/01/28 04:38:11;;;;;;;0.63;0.63;;;;;;;;;;5046423;28;20227;-84
2024/01/28 04:40:38;;;;;;;1.00;1.00;;;;;;;;;;5048004;28;20200;-86
2024/01/28 04:43:12;;;;;;;1.43;1.33;;;;;;;;;;5041401;28;20192;-84
2024/01/28 04:45:39;;;;;;;1.47;1.37;;;;;;;;;;5038791;28;20210;-85
2024/01/28 04:48:07;;;;;;;0.40;0.40;;;;;;;;;;5036809;28;20673;-86
2024/01/28 04:50:34;;;;;;;2.73;0.67;;;;;;;;;;5037216;28;20206;-85
2024/01/28 04:53:02;;;;;;;0.57;0.57;;;;;;;;;;5037448;28;20200;-85
2024/01/28 04:55:29;;;;;;;1.10;1.10;;;;;;;;;;5035927;28;20192;-84
2024/01/28 04:57:57;;;;;;;1.10;1.10;;;;;;;;;;5036313;28;20196;-85
2024/01/28 05:00:29;;;;;;;1.00;1.00;;;;;;;;;;5034942;28;20578;-84
2024/01/28 05:02:57;;;;;;;0.80;0.80;;;;;;;;;;5026482;28;20207;-84
2024/01/28 05:05:25;;;;;;;3.77;1.13;;;;;;;;;;5035535;28;20211;-85
2024/01/28 05:07:53;;;;;;;0.93;0.83;;;;;;;;;;5035339;28;20204;-83
2024/01/28 05:10:21;;;;;;;1.27;1.17;;;;;;;;;;5035209;28;20218;-85
2024/01/28 05:12:48;;;;;;;0.97;0.50;;;;;;;;;;5035214;28;20295;-85
2024/01/28 05:15:17;;;;;;;0.50;0.37;;;;;;;;;;5036153;28;20266;-86
2024/01/28 05:17:47;;;;;;;0.60;0.60;;;;;;;;;;5015823;28;20246;-85
2024/01/28 05:20:15;;;;;;;1.33;1.23;;;;;;;;;;5030459;28;20201;-86
2024/01/28 05:22:42;;;;;;;0.50;0.50;;;;;;;;;;5036407;28;20207;-86
2024/01/28 05:25:13;;;;;;;1.30;1.20;;;;;;;;;;5035897;28;20235;-85
2024/01/28 05:27:42;;;;;;;0.60;0.60;;;;;;;;;;5036190;28;20196;-85
2024/01/28 05:30:10;;;;;;;1.70;1.07;;;;;;;;;;5034714;28;20234;-86
2024/01/28 05:32:37;;;;;;;3.50;1.93;;;;;;;;;;5033956;28;20353;-84
2024/01/28 05:35:23;;;;;;;11.60;6.13;;;;;;;;;;5035167;28;20192;-84
2024/01/28 05:37:52;;;;;;;7.27;4.80;;;;;;;;;;5046187;28;20191;-85
2024/01/28 05:40:20;;;;;;;3.40;2.30;;;;;;;;;;5049619;28;20282;-85
2024/01/28 05:42:50;;;;;;;2.37;1.70;;;;;;;;;;5046043;28;20188;-85
2024/01/28 05:45:17;;;;;;;0.97;0.90;;;;;;;;;;5044339;28;20619;-84
2024/01/28 05:47:48;;;;;;;1.37;1.37;;;;;;;;;;5054817;28;20222;-85
2024/01/28 05:50:16;;;;;;;0.83;0.83;;;;;;;;;;5054734;28;20310;-85
2024/01/28 05:52:43;;;;;;;7.40;1.40;;;;;;;;;;5054310;28;20521;-85
2024/01/28 05:55:17;;;;;;;0.80;0.80;;;;;;;;;;5053958;28;20198;-86
2024/01/28 05:57:44;;;;;;;1.67;1.57;;;;;;;;;;5036542;28;20559;-84
2024/01/28 06:00:12;;;;;;;6.07;1.33;;;;;;;;;;5040518;28;20639;-84
2024/01/28 06:02:39;;;;;;;1.33;1.23;;;;;;;;;;5045504;28;20649;-84
2024/01/28 06:05:09;;;;;;;1.20;1.00;;;;;;;;;;5054162;28;20279;-85
2024/01/28 06:07:37;;;;;;;2.80;1.10;;;;;;;;;;5039912;28;20200;-83
2024/01/28 06:10:04;;;;;;;3.20;1.50;;;;;;;;;;5035345;28;20231;-85
2024/01/28 06:12:38;;;;;;;1.60;1.33;;;;;;;;;;5034792;28;20196;-85
2024/01/28 06:15:08;;;;;;;2.57;0.77;;;;;;;;;;5034543;28;20188;-85
2024/01/28 06:17:36;;;;;;;1.70;0.80;;;;;;;;;;5034831;28;20529;-85
2024/01/28 06:20:04;;;;;;;0.70;0.70;;;;;;;;;;5035357;28;20212;-86
2024/01/28 06:22:42;;;;;;;9.80;1.43;;;;;;;;;;5043356;28;20228;-84
2024/01/28 06:25:10;;;;;;;0.77;0.77;;;;;;;;;;5049464;28;20245;-84
2024/01/28 06:27:40;;;;;;;0.87;0.87;;;;;;;;;;5052320;28;20203;-85
2024/01/28 06:30:12;;;;;;;1.40;1.20;;;;;;;;;;5051435;28;20232;-85
2024/01/28 06:32:42;;;;;;;1.03;1.03;;;;;;;;;;5035238;28;20239;-85
2024/01/28 06:35:09;;;;;;;7.33;1.40;;;;;;;;;;5039461;28;20367;-85
2024/01/28 06:37:37;;;;;;;3.90;1.60;;;;;;;;;;5038160;28;20200;-86
2024/01/28 06:40:06;;;;;;;0.87;0.87;;;;;;;;;;5035146;28;20291;-85
2024/01/28 06:42:37;;;;;;;1.43;1.33;;;;;;;;;;5036375;28;20200;-85
2024/01/28 06:45:09;;;;;;;1.37;1.23;;;;;;;;;;5034928;28;20204;-83
2024/01/28 06:47:37;;;;;;;7.73;2.60;;;;;;;;;;5036139;28;20214;-84
2024/01/28 06:50:05;;;;;;;4.00;2.10;;;;;;;;;;5038018;28;20234;-84
2024/01/28 06:52:33;;;;;;;1.17;1.10;;;;;;;;;;5045427;28;20230;-85
2024/01/28 06:55:01;;;;;;;10.07;1.70;;;;;;;;;;5044113;28;20222;-85
2024/01/28 06:57:28;;;;;;;0.60;0.60;;;;;;;;;;5018384;28;20247;-86
2024/01/28 06:59:58;;;;;;;1.43;1.33;;;;;;;;;;5020143;28;20220;-83
2024/01/28 07:02:30;;;;;;;3.50;1.67;;;;;;;;;;5037221;28;20738;-85
2024/01/28 07:04:57;;;;;;;1.30;1.20;;;;;;;;;;5041356;28;20208;-84
2024/01/28 07:07:30;;;;;;;0.50;0.50;;;;;;;;;;5038751;28;20664;-85
2024/01/28 07:10:00;;;;;;;1.90;1.80;;;;;;;;;;5037859;28;20231;-86
2024/01/28 07:12:27;;;;;;;1.50;1.50;;;;;;;;;;5038693;28;20227;-85
2024/01/28 07:14:58;;;;;;;1.10;1.03;;;;;;;;;;5039699;28;20216;-84
2024/01/28 07:17:26;;;;;;;1.30;1.30;;;;;;;;;;5038488;28;20208;-85
2024/01/28 07:19:58;;;;;;;1.30;1.30;;;;;;;;;;5037874;28;20271;-85
2024/01/28 07:22:26;;;;;;;1.37;1.27;;;;;;;;;;5038473;28;20278;-85
2024/01/28 07:24:55;;;;;;;0.47;0.47;;;;;;;;;;5038554;28;20196;-85
2024/01/28 07:27:22;;;;;;;2.63;1.47;;;;;;;;;;5038458;28;20607;-85
2024/01/28 07:29:50;;;;;;;1.63;1.50;;;;;;;;;;5037569;28;20227;-85
2024/01/28 07:32:18;;;;;;;1.53;1.47;;;;;;;;;;5038462;28;20232;-85
2024/01/28 07:34:46;;;;;;;1.17;0.83;;;;;;;;;;5039145;28;20215;-85
2024/01/28 07:37:16;;;;;;;3.37;1.70;;;;;;;;;;5037893;28;20231;-85
2024/01/28 07:39:46;;;;;;;1.43;1.33;;;;;;;;;;5036729;28;20208;-85
2024/01/28 07:42:14;;;;;;;6.10;1.87;;;;;;;;;;5037392;28;20696;-85
2024/01/28 07:44:43;;;;;;;0.97;0.97;;;;;;;;;;5038615;28;20249;-86
2024/01/28 07:47:10;;;;;;;1.37;1.37;;;;;;;;;;5035758;28;20279;-86
2024/01/28 07:49:40;;;;;;;1.03;1.03;;;;;;;;;;5034972;28;20235;-86
2024/01/28 07:52:09;;;;;;;2.40;2.20;;;;;;;;;;5040655;28;20583;-87
2024/01/28 07:54:46;;;;;;;3.03;1.50;;;;;;;;;;5040188;28;20203;-85
2024/01/28 07:57:16;;;;;;;1.07;1.07;;;;;;;;;;5047185;28;20250;-85
2024/01/28 07:59:43;;;;;;;4.83;1.17;;;;;;;;;;5049072;28;20621;-86
2024/01/28 08:02:19;;;;;;;4.57;1.43;;;;;;;;;;5059626;28;20298;-85
2024/01/28 08:05:01;;;;;;;4.13;1.90;;;;;;;;;;5062321;28;20183;-85
2024/01/28 08:07:40;;;;;;;4.37;2.40;;;;;;;;;;5056588;28;20286;-85
2024/01/28 08:10:34;;;;;;;6.73;3.43;;;;;;;;;;5054415;28;20282;-85
2024/01/28 08:13:22;;;;;;;2.20;2.00;;;;;;;;;;5054663;28;20200;-85
2024/01/28 08:15:51;;;;;;;2.83;1.50;;;;;;;;;;5049230;28;20226;-84
2024/01/28 08:18:20;;;;;;;1.30;1.10;;;;;;;;;;5044234;28;20251;-84
2024/01/28 08:20:51;;;;;;;2.13;1.43;;;;;;;;;;5041035;28;20216;-85
2024/01/28 08:23:19;;;;;;;1.67;1.57;;;;;;;;;;5037269;28;20204;-85
2024/01/28 08:25:47;;;;;;;1.57;1.47;;;;;;;;;;5044082;28;20237;-85
2024/01/28 08:28:15;;;;;;;3.90;1.20;;;;;;;;;;5049704;28;20201;-84
2024/01/28 08:30:43;;;;;;;1.77;1.67;;;;;;;;;;5057730;28;20231;-86
2024/01/28 08:33:12;;;;;;;1.20;1.20;;;;;;;;;;5033333;28;20711;-87
2024/01/28 08:35:40;;;;;;;1.20;1.20;;;;;;;;;;5027365;28;20337;-87
2024/01/28 08:38:08;;;;;;;4.80;1.63;;;;;;;;;;5053829;28;20226;-84
2024/01/28 08:40:38;;;;;;;1.47;0.90;;;;;;;;;;5048502;28;20307;-84
2024/01/28 08:43:10;;;;;;;1.13;1.13;;;;;;;;;;5045616;28;20789;-85
2024/01/28 08:45:39;;;;;;;3.57;1.33;;;;;;;;;;5041595;28;20674;-86
2024/01/28 08:48:09;;;;;;;2.40;1.13;;;;;;;;;;5047456;28;20229;-86
2024/01/28 08:50:40;;;;;;;4.67;1.90;;;;;;;;;;5041752;28;20255;-86
2024/01/28 08:53:09;;;;;;;2.30;1.47;;;;;;;;;;5033438;28;20220;-86
2024/01/28 08:55:37;;;;;;;2.50;1.70;;;;;;;;;;5026015;28;20224;-87
2024/01/28 08:58:07;;;;;;;1.43;1.43;;;;;;;;;;5016263;28;20750;-86
2024/01/28 09:00:34;;;;;;;1.73;1.20;;;;;;;;;;5029510;28;20236;-86
2024/01/28 09:03:01;;;;;;;1.30;1.17;;;;;;;;;;5036677;28;20220;-86
2024/01/28 09:05:29;;;;;;;1.00;0.97;;;;;;;;;;5036337;28;20227;-86
2024/01/28 09:07:59;;;;;;;1.80;1.27;;;;;;;;;;5034664;28;20260;-85
2024/01/28 09:10:27;;;;;;;1.73;1.20;;;;;;;;;;5035132;28;20236;-87
2024/01/28 09:12:56;;;;;;;2.67;2.47;;;;;;;;;;5034789;28;20231;-85
2024/01/28 09:15:27;;;;;;;1.37;1.10;;;;;;;;;;5035058;28;20307;-85
2024/01/28 09:17:58;;;;;;;5.07;1.20;;;;;;;;;;5041618;28;20230;-86
2024/01/28 09:20:27;;;;;;;1.20;1.10;;;;;;;;;;5048717;28;20570;-85
2024/01/28 09:22:55;;;;;;;1.67;1.67;;;;;;;;;;5053799;28;20261;-86
2024/01/28 09:25:28;;;;;;;2.30;1.30;;;;;;;;;;5042559;28;20260;-84
2024/01/28 09:27:55;;;;;;;8.23;1.60;;;;;;;;;;5037346;28;20248;-85
2024/01/28 09:30:25;;;;;;;1.27;1.27;;;;;;;;;;5034758;28;20235;-86
2024/01/28 09:32:54;;;;;;;3.50;0.73;;;;;;;;;;5033348;28;20255;-85
2024/01/28 09:35:26;;;;;;;4.37;1.87;;;;;;;;;;5034695;28;20264;-85
2024/01/28 09:37:55;;;;;;;2.07;0.97;;;;;;;;;;5039025;28;20235;-86
2024/01/28 09:40:28;;;;;;;5.63;1.40;;;;;;;;;;5035269;28;20700;-86
2024/01/28 09:43:01;;;;;;;3.40;1.43;;;;;;;;;;5049248;28;20321;-86
2024/01/28 09:45:30;;;;;;;1.57;1.47;;;;;;;;;;5053967;28;20696;-87
2024/01/28 09:47:59;;;;;;;9.67;3.67;;;;;;;;;;5053106;28;20227;-86
2024/01/28 09:50:27;;;;;;;4.27;3.27;;;;;;;;;;5034317;28;20297;-86
2024/01/28 09:52:55;;;;;;;1.40;1.00;;;;;;;;;;5034567;28;20251;-85
2024/01/28 09:55:24;;;;;;;0.20;0.20;;;;;;;;;;5037098;28;20228;-86
2024/01/28 09:57:53;;;;;;;1.13;0.90;;;;;;;;;;5042678;28;20223;-85
2024/01/28 10:00:25;;;;;;;1.77;0.60;;;;;;;;;;5038570;28;20298;-85
2024/01/28 10:02:54;;;;;;;1.07;1.07;;;;;;;;;;5038551;28;20247;-86
2024/01/28 10:05:22;;;;;;;0.90;0.90;;;;;;;;;;5042218;28;20231;-86
2024/01/28 10:07:50;;;;;;;1.70;1.57;;;;;;;;;;5041323;28;20232;-85
2024/01/28 10:10:19;;;;;;;5.83;1.50;;;;;;;;;;5042672;28;20696;-85
2024/01/28 10:12:49;;;;;;;11.13;1.27;;;;;;;;;;5039614;28;20716;-85
2024/01/28 10:15:23;;;;;;;1.13;1.07;;;;;;;;;;5041817;28;20231;-86
2024/01/28 10:17:51;;;;;;;1.63;1.53;;;;;;;;;;5045847;28;20276;-86
2024/01/28 10:20:18;;;;;;;2.10;1.53;;;;;;;;;;5044171;28;20230;-88
2024/01/28 10:22:48;;;;;;;0.77;0.53;;;;;;;;;;5043917;28;20649;-86
2024/01/28 10:25:16;;;;;;;1.13;1.13;;;;;;;;;;5055412;28;20250;-87
2024/01/28 10:27:44;;;;;;;1.33;1.03;;;;;;;;;;5056268;28;20233;-86
2024/01/28 10:30:13;;;;;;;1.40;1.07;;;;;;;;;;5055692;28;20254;-86
2024/01/28 10:32:47;;;;;;;1.10;1.10;;;;;;;;;;5048578;28;20247;-86
2024/01/28 10:35:17;;;;;;;1.03;0.87;;;;;;;;;;5048372;28;20256;-86
2024/01/28 10:37:46;;;;;;;1.57;1.47;;;;;;;;;;5030256;28;20723;-86
2024/01/28 10:40:16;;;;;;;1.27;1.17;;;;;;;;;;5031511;28;20232;-86
2024/01/28 10:42:45;;;;;;;1.00;1.00;;;;;;;;;;5033617;28;20774;-84
2024/01/28 10:45:13;;;;;;;3.20;1.67;;;;;;;;;;5021601;28;20274;-84
2024/01/28 10:47:42;;;;;;;5.70;2.23;;;;;;;;;;5013674;28;20228;-84
2024/01/28 10:50:17;;;;;;;1.10;1.00;;;;;;;;;;5035425;28;20257;-85
2024/01/28 10:52:45;;;;;;;3.50;1.93;;;;;;;;;;5042188;28;20254;-85
2024/01/28 10:55:12;;;;;;;1.30;1.17;;;;;;;;;;5039627;28;20893;-85
2024/01/28 10:57:41;;;;;;;1.53;1.40;;;;;;;;;;5033068;28;20243;-86
2024/01/28 11:00:10;;;;;;;0.97;0.93;;;;;;;;;;5040276;28;20738;-86
2024/01/28 11:02:39;;;;;;;0.70;0.70;;;;;;;;;;5042078;28;20658;-85
2024/01/28 11:05:09;;;;;;;2.43;1.07;;;;;;;;;;5039564;28;20671;-85
2024/01/28 11:07:42;;;;;;;1.67;1.53;;;;;;;;;;5041435;28;20219;-87
2024/01/28 11:10:13;;;;;;;0.80;0.80;;;;;;;;;;5037397;28;20362;-86
2024/01/28 11:12:41;;;;;;;2.93;1.40;;;;;;;;;;5036601;28;20216;-87
2024/01/28 11:15:14;;;;;;;5.57;1.87;;;;;;;;;;5033038;28;20704;-87
2024/01/28 11:17:42;;;;;;;1.60;1.50;;;;;;;;;;5051432;28;20600;-86
2024/01/28 11:20:12;;;;;;;2.10;1.00;;;;;;;;;;5033780;28;20234;-87
2024/01/28 11:22:51;;;;;;;1.53;1.53;;;;;;;;;;5040486;28;20278;-85
2024/01/28 11:25:22;;;;;;;5.47;2.43;;;;;;;;;;5043031;28;20286;-86
2024/01/28 11:27:52;;;;;;;1.90;1.60;;;;;;;;;;5047009;28;20805;-87
2024/01/28 11:30:22;;;;;;;3.13;1.83;;;;;;;;;;5036326;28;20731;-87
2024/01/28 11:32:52;;;;;;;2.13;1.60;;;;;;;;;;5033137;28;20262;-85
2024/01/28 11:35:20;;;;;;;3.03;1.53;;;;;;;;;;5031460;28;20282;-85
2024/01/28 11:37:52;;;;;;;2.00;1.80;;;;;;;;;;5032442;28;20235;-85
2024/01/28 11:40:23;;;;;;;2.03;1.93;;;;;;;;;;5033920;28;20236;-85
2024/01/28 11:42:56;;;;;;;3.10;1.60;;;;;;;;;;5038041;28;20255;-86
2024/01/28 11:45:26;;;;;;;1.90;1.80;;;;;;;;;;5042873;28;20304;-85
2024/01/28 11:47:57;;;;;;;1.80;1.60;;;;;;;;;;5056920;28;20231;-85
2024/01/28 11:50:26;;;;;;;8.80;2.43;;;;;;;;;;5058876;28;20233;-85
2024/01/28 11:52:55;;;;;;;4.33;2.27;;;;;;;;;;5066967;28;20223;-84
2024/01/28 11:55:23;;;;;;;2.20;2.10;;;;;;;;;;5047171;28;20228;-86
2024/01/28 11:57:52;;;;;;;1.30;1.23;;;;;;;;;;5049046;28;20215;-85
2024/01/28 12:00:20;;;;;;;1.40;1.40;;;;;;;;;;5059904;28;20227;-87
2024/01/28 12:02:49;;;;;;;2.83;2.60;;;;;;;;;;5054527;28;20214;-86
2024/01/28 12:05:16;;;;;;;2.77;2.03;;;;;;;;;;5036680;28;20650;-85
2024/01/28 12:07:47;;;;;;;3.00;2.20;;;;;;;;;;5045447;28;20619;-85
2024/01/28 12:10:17;;;;;;;1.40;1.30;;;;;;;;;;5036649;28;20590;-86
2024/01/28 12:12:45;;;;;;;5.27;2.23;;;;;;;;;;5035604;28;20239;-87
2024/01/28 12:15:15;;;;;;;3.47;1.50;;;;;;;;;;5038229;28;20235;-86
2024/01/28 12:17:43;;;;;;;1.57;1.47;;;;;;;;;;5037695;28;20228;-86
2024/01/28 12:20:21;;;;;;;0.87;0.80;;;;;;;;;;5035309;28;20291;-86
2024/01/28 12:22:52;;;;;;;2.50;1.97;;;;;;;;;;5037431;28;20227;-85
2024/01/28 12:25:25;;;;;;;1.40;1.30;;;;;;;;;;5036298;28;20236;-85
2024/01/28 12:27:52;;;;;;;1.67;1.57;;;;;;;;;;5035635;28;20216;-85
2024/01/28 12:30:22;;;;;;;2.90;1.90;;;;;;;;;;5035317;28;20310;-85
2024/01/28 12:32:51;;;;;;;2.13;1.97;;;;;;;;;;5036331;28;20219;-86
2024/01/28 12:35:22;;;;;;;1.80;1.70;;;;;;;;;;5033781;28;20223;-85
2024/01/28 12:37:55;;;;;;;3.63;1.77;;;;;;;;;;5037356;28;20260;-85
2024/01/28 12:40:39;;;;;;;7.47;1.80;;;;;;;;;;5036177;28;20232;-85
2024/01/28 12:43:09;;;;;;;1.60;1.50;;;;;;;;;;5037723;28;20231;-85
2024/01/28 12:45:37;;;;;;;4.97;1.67;;;;;;;;;;5039527;28;20238;-85
2024/01/28 12:48:06;;;;;;;2.97;2.70;;;;;;;;;;5036318;28;20223;-86
2024/01/28 12:50:33;;;;;;;7.27;2.40;;;;;;;;;;5045642;28;20232;-87
2024/01/28 12:53:05;;;;;;;3.17;2.23;;;;;;;;;;5048466;28;20212;-87
2024/01/28 12:56:09;;;;;;;2.13;1.97;;;;;;;;;;5047085;28;20241;-87
2024/01/28 12:58:49;;;;;;;2.80;2.57;;;;;;;;;;5052723;28;20207;-86
2024/01/28 13:01:37;;;;;;;1.67;1.57;;;;;;;;;;5054434;28;20195;-85
2024/01/28 13:06:50;;;;;;;1.83;1.73;;;;;;;;;;5016874;28;20209;-86
2024/01/28 13:12:03;;;;;;;5.50;2.03;;;;;;;;;;5072373;22;20225;-87
2024/01/28 13:14:49;;;;;;;3.07;2.17;;;;;;;;;;5036754;28;20204;-86
2024/01/28 13:17:37;;;;;;;1.77;1.67;;;;;;;;;;5037983;28;20252;-86
2024/01/28 13:20:12;;;;;;;1.73;1.63;;;;;;;;;;5036567;28;20211;-87
2024/01/28 13:22:45;;;;;;;1.60;1.50;;;;;;;;;;5037252;28;20192;-86
2024/01/28 13:25:23;;;;;;;3.13;2.87;;;;;;;;;;5036872;28;20196;-86
2024/01/28 13:27:54;;;;;;;1.70;1.70;;;;;;;;;;5037401;28;20260;-86
2024/01/28 13:33:19;;;;;;;3.30;2.90;;;;;;;;;;5035007;28;20204;-86
2024/01/28 13:35:50;;;;;;;5.27;2.20;;;;;;;;;;5037335;28;20195;-85
2024/01/28 13:38:21;;;;;;;3.90;2.57;;;;;;;;;;5037191;28;20215;-87
2024/01/28 13:40:48;;;;;;;2.53;2.43;;;;;;;;;;5029511;28;20236;-85
2024/01/28 13:43:24;;;;;;;3.90;2.47;;;;;;;;;;5031889;28;20215;-86
2024/01/28 13:45:57;;;;;;;5.23;2.40;;;;;;;;;;5034097;28;20224;-85
2024/01/28 13:48:27;;;;;;;2.47;2.27;;;;;;;;;;5031049;28;20268;-86
2024/01/28 13:50:57;;;;;;;6.60;3.47;;;;;;;;;;5032619;28;20211;-85
2024/01/28 13:53:25;;;;;;;3.83;2.90;;;;;;;;;;5031733;28;20232;-84
2024/01/28 13:55:55;;;;;;;3.33;3.00;;;;;;;;;;5028900;28;20192;-85
2024/01/28 13:58:26;;;;;;;6.73;2.03;;;;;;;;;;5026326;28;20612;-86
2024/01/28 14:00:55;;;;;;;5.40;3.40;;;;;;;;;;5031564;28;20204;-85
2024/01/28 14:03:23;;;;;;;2.70;2.50;;;;;;;;;;5032923;28;20208;-84
2024/01/28 14:05:52;;;;;;;3.20;2.20;;;;;;;;;;5033466;28;20207;-85
2024/01/28 14:08:25;;;;;;;3.43;3.17;;;;;;;;;;5033004;28;20243;-84
2024/01/28 14:10:52;;;;;;;3.97;1.77;;;;;;;;;;5033695;28;20211;-85
2024/01/28 14:13:20;;;;;;;2.97;2.67;;;;;;;;;;5032676;28;20223;-86
2024/01/28 14:15:47;;;;;;;4.23;2.60;;;;;;;;;;5034537;28;20259;-86
2024/01/28 14:18:17;;;;;;;5.67;2.50;;;;;;;;;;5031995;28;20208;-86
2024/01/28 14:20:46;;;;;;;1.70;1.50;;;;;;;;;;5031657;28;20301;-85
2024/01/28 14:23:13;;;;;;;3.27;1.90;;;;;;;;;;5032191;28;20201;-85
2024/01/28 14:25:41;;;;;;;4.20;2.43;;;;;;;;;;5031541;28;20227;-85
2024/01/28 14:28:08;;;;;;;4.67;3.27;;;;;;;;;;5034342;28;20189;-85
2024/01/28 14:30:50;;;;;;;8.13;2.67;;;;;;;;;;5036471;28;20224;-85
2024/01/28 14:33:21;;;;;;;3.23;2.33;;;;;;;;;;5033379;28;20224;-84
2024/01/28 14:35:49;;;;;;;3.77;3.43;;;;;;;;;;5033620;28;20204;-85
2024/01/28 14:38:20;;;;;;;6.57;3.63;;;;;;;;;;5033848;28;20200;-84
2024/01/28 14:40:49;;;;;;;5.87;2.97;;;;;;;;;;5034517;28;20231;-84
2024/01/28 14:43:20;;;;;;;6.50;4.23;;;;;;;;;;5034536;28;20196;-85
2024/01/28 14:45:48;;;;;;;7.30;4.37;;;;;;;;;;5034970;28;20193;-85
2024/01/28 14:48:27;;;;;;;3.13;2.83;;;;;;;;;;5034091;28;20272;-86
2024/01/28 14:50:59;;;;;;;2.90;2.07;;;;;;;;;;5034852;28;20192;-85
2024/01/28 14:53:28;;;;;;;2.67;2.50;;;;;;;;;;5035044;28;20211;-86
2024/01/28 14:55:59;;;;;;;5.47;3.27;;;;;;;;;;5034499;28;20210;-86
2024/01/28 15:01:14;;;;;;;2.70;2.50;;;;;;;;;;5024329;28;20212;-88
2024/01/28 15:03:48;;;;;;;6.67;3.37;;;;;;;;;;5027778;28;20212;-88
2024/01/28 15:06:22;;;;;;;3.07;2.60;;;;;;;;;;5029861;28;20236;-86
2024/01/28 15:08:55;;;;;;;2.50;2.30;;;;;;;;;;5025659;28;20233;-85